createdAt,value
2018-01-26T00:00:40.226Z,1009.55
2018-01-26T00:01:40.128Z,1009.52
2018-01-26T00:02:40.028Z,1009.53
2018-01-26T00:03:39.963Z,1009.58
2018-01-26T00:04:39.845Z,1009.53
2018-01-26T00:07:22.135Z,1009.50
2018-01-26T00:08:43.023Z,1009.47
2018-01-26T00:09:21.956Z,1009.44
2018-01-26T00:10:21.878Z,1009.43
2018-01-26T00:11:21.805Z,1009.45
2018-01-26T00:14:04.107Z,1009.43
2018-01-26T00:15:04.045Z,1009.46
2018-01-26T00:16:03.950Z,1009.44
2018-01-26T00:17:03.889Z,1009.39
2018-01-26T00:18:03.807Z,1009.36
2018-01-26T00:19:03.743Z,1009.38
2018-01-26T00:20:03.711Z,1009.39
2018-01-26T00:21:03.594Z,1009.42
2018-01-26T00:22:03.465Z,1009.42
2018-01-26T00:23:03.412Z,1009.43
2018-01-26T00:24:03.313Z,1009.36
2018-01-26T00:25:03.237Z,1009.42
2018-01-26T00:26:03.149Z,1009.37
2018-01-26T00:27:03.088Z,1009.37
2018-01-26T00:28:03.032Z,1009.35
2018-01-26T00:29:02.930Z,1009.36
2018-01-26T00:30:02.829Z,1009.35
2018-01-26T00:31:02.758Z,1009.36
2018-01-26T00:32:02.684Z,1009.40
2018-01-26T00:33:02.615Z,1009.36
2018-01-26T00:34:02.577Z,1009.42
2018-01-26T00:35:02.453Z,1009.40
2018-01-26T00:36:02.355Z,1009.33
2018-01-26T00:37:02.294Z,1009.33
2018-01-26T00:38:02.196Z,1009.27
2018-01-26T00:39:02.150Z,1009.28
2018-01-26T00:40:02.044Z,1009.28
2018-01-26T00:41:01.963Z,1009.27
2018-01-26T00:42:01.873Z,1009.32
2018-01-26T00:43:01.887Z,1009.36
2018-01-26T00:44:01.738Z,1009.33
2018-01-26T00:45:01.654Z,1009.35
2018-01-26T00:46:01.563Z,1009.38
2018-01-26T00:47:01.497Z,1009.41
2018-01-26T00:48:01.396Z,1009.37
2018-01-26T00:49:01.352Z,1009.39
2018-01-26T00:50:01.244Z,1009.42
2018-01-26T00:51:01.169Z,1009.48
2018-01-26T00:52:01.118Z,1009.43
2018-01-26T00:53:01.008Z,1009.41
2018-01-26T00:54:00.953Z,1009.39
2018-01-26T00:55:00.882Z,1009.41
2018-01-26T00:56:00.761Z,1009.42
2018-01-26T00:57:00.693Z,1009.41
2018-01-26T00:58:00.607Z,1009.42
2018-01-26T00:59:00.550Z,1009.39
2018-01-26T01:00:00.488Z,1009.39
2018-01-26T01:01:00.374Z,1009.40
2018-01-26T01:02:00.289Z,1009.40
2018-01-26T01:03:00.222Z,1009.40
2018-01-26T01:04:00.119Z,1009.43
2018-01-26T01:05:00.055Z,1009.44
2018-01-26T01:05:59.981Z,1009.47
2018-01-26T01:06:59.893Z,1009.43
2018-01-26T01:08:00.694Z,1009.44
2018-01-26T01:08:59.774Z,1009.45
2018-01-26T01:09:59.640Z,1009.39
2018-01-26T01:10:59.586Z,1009.43
2018-01-26T01:11:59.482Z,1009.41
2018-01-26T01:12:59.421Z,1009.39
2018-01-26T01:13:59.321Z,1009.41
2018-01-26T01:14:59.254Z,1009.39
2018-01-26T01:15:59.183Z,1009.42
2018-01-26T01:16:59.111Z,1009.42
2018-01-26T01:17:59.011Z,1009.42
2018-01-26T01:18:58.935Z,1009.43
2018-01-26T01:19:58.841Z,1009.42
2018-01-26T01:20:58.805Z,1009.41
2018-01-26T01:21:58.696Z,1009.44
2018-01-26T01:22:58.625Z,1009.44
2018-01-26T01:23:58.525Z,1009.43
2018-01-26T01:24:58.498Z,1009.41
2018-01-26T01:25:58.397Z,1009.41
2018-01-26T01:26:58.316Z,1009.38
2018-01-26T01:27:58.210Z,1009.37
2018-01-26T01:28:58.134Z,1009.34
2018-01-26T01:29:58.049Z,1009.35
2018-01-26T01:30:58.076Z,1009.43
2018-01-26T01:31:57.888Z,1009.41
2018-01-26T01:32:57.824Z,1009.41
2018-01-26T01:33:57.728Z,1009.40
2018-01-26T01:34:57.674Z,1009.38
2018-01-26T01:35:58.436Z,1009.40
2018-01-26T01:36:57.517Z,1009.44
2018-01-26T01:37:57.430Z,1009.40
2018-01-26T01:38:57.342Z,1009.39
2018-01-26T01:39:57.275Z,1009.39
2018-01-26T01:40:57.190Z,1009.41
2018-01-26T01:41:57.093Z,1009.38
2018-01-26T01:42:57.042Z,1009.42
2018-01-26T01:43:56.936Z,1009.41
2018-01-26T01:44:56.863Z,1009.42
2018-01-26T01:45:56.768Z,1009.41
2018-01-26T01:46:56.714Z,1009.42
2018-01-26T01:47:56.653Z,1009.45
2018-01-26T01:48:56.584Z,1009.44
2018-01-26T01:49:56.452Z,1009.49
2018-01-26T01:50:56.391Z,1009.51
2018-01-26T01:51:56.287Z,1009.53
2018-01-26T01:52:56.247Z,1009.57
2018-01-26T01:53:56.134Z,1009.55
2018-01-26T01:54:56.070Z,1009.57
2018-01-26T01:55:55.971Z,1009.58
2018-01-26T01:56:55.904Z,1009.54
2018-01-26T01:57:55.830Z,1009.57
2018-01-26T01:58:55.776Z,1009.59
2018-01-26T01:59:55.657Z,1009.60
2018-01-26T02:00:55.590Z,1009.64
2018-01-26T02:01:55.497Z,1009.63
2018-01-26T02:02:55.432Z,1009.63
2018-01-26T02:03:55.361Z,1009.61
2018-01-26T02:04:55.271Z,1009.59
2018-01-26T02:05:55.186Z,1009.55
2018-01-26T02:06:55.100Z,1009.61
2018-01-26T02:07:55.025Z,1009.63
2018-01-26T02:08:54.970Z,1009.61
2018-01-26T02:09:54.857Z,1009.62
2018-01-26T02:10:54.795Z,1009.56
2018-01-26T02:11:54.718Z,1009.58
2018-01-26T02:12:54.639Z,1009.52
2018-01-26T02:13:54.563Z,1009.52
2018-01-26T02:14:54.475Z,1009.55
2018-01-26T02:15:54.382Z,1009.55
2018-01-26T02:16:54.308Z,1009.56
2018-01-26T02:17:54.229Z,1009.59
2018-01-26T02:18:54.190Z,1009.56
2018-01-26T02:19:54.071Z,1009.58
2018-01-26T02:20:53.988Z,1009.56
2018-01-26T02:21:53.905Z,1009.63
2018-01-26T02:22:53.838Z,1009.62
2018-01-26T02:23:53.757Z,1009.63
2018-01-26T02:24:53.687Z,1009.64
2018-01-26T02:25:53.586Z,1009.69
2018-01-26T02:26:53.515Z,1009.70
2018-01-26T02:27:53.454Z,1009.70
2018-01-26T02:28:53.361Z,1009.73
2018-01-26T02:29:53.307Z,1009.69
2018-01-26T02:30:53.201Z,1009.74
2018-01-26T02:31:53.109Z,1009.71
2018-01-26T02:32:53.061Z,1009.70
2018-01-26T02:33:52.945Z,1009.69
2018-01-26T02:34:52.922Z,1009.70
2018-01-26T02:35:52.786Z,1009.82
2018-01-26T02:36:52.725Z,1009.76
2018-01-26T02:37:52.628Z,1009.83
2018-01-26T02:38:52.562Z,1009.80
2018-01-26T02:39:52.465Z,1009.81
2018-01-26T02:40:52.418Z,1009.82
2018-01-26T02:41:52.336Z,1009.77
2018-01-26T02:42:52.242Z,1009.75
2018-01-26T02:43:52.165Z,1009.70
2018-01-26T02:44:52.082Z,1009.67
2018-01-26T02:45:52.015Z,1009.67
2018-01-26T02:46:51.923Z,1009.62
2018-01-26T02:47:52.664Z,1009.56
2018-01-26T02:48:51.804Z,1009.53
2018-01-26T02:49:51.687Z,1009.49
2018-01-26T02:50:51.691Z,1009.46
2018-01-26T02:51:51.519Z,1009.43
2018-01-26T02:52:51.450Z,1009.43
2018-01-26T02:53:51.358Z,1009.40
2018-01-26T02:54:51.299Z,1009.43
2018-01-26T02:55:51.223Z,1009.41
2018-01-26T02:56:51.138Z,1009.43
2018-01-26T02:57:51.058Z,1009.45
2018-01-26T02:58:50.968Z,1009.45
2018-01-26T02:59:51.721Z,1009.45
2018-01-26T03:00:51.833Z,1009.48
2018-01-26T03:01:50.726Z,1009.49
2018-01-26T03:02:50.665Z,1009.45
2018-01-26T03:03:50.567Z,1009.48
2018-01-26T03:04:50.492Z,1009.46
2018-01-26T03:05:50.400Z,1009.45
2018-01-26T03:06:50.355Z,1009.46
2018-01-26T03:07:50.248Z,1009.45
2018-01-26T03:08:51.231Z,1009.44
2018-01-26T03:09:50.087Z,1009.46
2018-01-26T03:10:50.026Z,1009.49
2018-01-26T03:11:49.925Z,1009.52
2018-01-26T03:12:49.863Z,1009.50
2018-01-26T03:13:49.796Z,1009.53
2018-01-26T03:14:49.708Z,1009.55
2018-01-26T03:15:49.611Z,1009.57
2018-01-26T03:16:49.578Z,1009.60
2018-01-26T03:17:49.447Z,1009.57
2018-01-26T03:18:49.386Z,1009.61
2018-01-26T03:19:49.292Z,1009.61
2018-01-26T03:20:49.217Z,1009.60
2018-01-26T03:21:49.145Z,1009.64
2018-01-26T03:22:49.062Z,1009.64
2018-01-26T03:23:48.963Z,1009.67
2018-01-26T03:24:48.901Z,1009.64
2018-01-26T03:25:48.805Z,1009.66
2018-01-26T03:26:48.763Z,1009.65
2018-01-26T03:27:48.658Z,1009.65
2018-01-26T03:28:48.607Z,1009.71
2018-01-26T03:29:48.494Z,1009.71
2018-01-26T03:30:48.444Z,1009.74
2018-01-26T03:31:48.383Z,1009.83
2018-01-26T03:32:48.283Z,1009.82
2018-01-26T03:33:48.174Z,1009.81
2018-01-26T03:34:48.134Z,1009.83
2018-01-26T03:35:48.015Z,1009.81
2018-01-26T03:36:47.946Z,1009.82
2018-01-26T03:37:47.857Z,1009.83
2018-01-26T03:38:47.820Z,1009.85
2018-01-26T03:39:47.709Z,1009.87
2018-01-26T03:40:47.672Z,1009.87
2018-01-26T03:41:47.541Z,1009.92
2018-01-26T03:42:47.462Z,1009.94
2018-01-26T03:43:47.379Z,1009.92
2018-01-26T03:44:47.322Z,1009.85
2018-01-26T03:45:47.218Z,1009.91
2018-01-26T03:46:47.155Z,1009.95
2018-01-26T03:47:47.177Z,1009.91
2018-01-26T03:48:46.989Z,1009.90
2018-01-26T03:49:46.909Z,1009.94
2018-01-26T03:50:46.829Z,1009.96
2018-01-26T03:51:46.752Z,1009.96
2018-01-26T03:52:46.666Z,1009.91
2018-01-26T03:53:46.575Z,1009.96
2018-01-26T03:54:46.537Z,1009.98
2018-01-26T03:55:46.434Z,1009.99
2018-01-26T03:56:46.352Z,1009.93
2018-01-26T03:57:46.248Z,1009.96
2018-01-26T03:58:46.195Z,1009.97
2018-01-26T03:59:46.109Z,1009.93
2018-01-26T04:02:28.161Z,1009.92
2018-01-26T04:03:28.089Z,1009.95
2018-01-26T04:04:27.995Z,1009.95
2018-01-26T04:05:27.915Z,1009.95
2018-01-26T04:06:27.847Z,1009.97
2018-01-26T04:07:27.772Z,1009.99
2018-01-26T04:08:27.685Z,1010.01
2018-01-26T04:09:27.628Z,1009.99
2018-01-26T04:11:52.171Z,1010.05
2018-01-26T04:12:52.096Z,1010.05
2018-01-26T04:13:51.989Z,1010.04
2018-01-26T04:16:34.168Z,1010.07
2018-01-26T04:17:34.086Z,1010.09
2018-01-26T04:18:33.997Z,1010.10
2018-01-26T04:21:16.155Z,1010.19
2018-01-26T04:22:16.101Z,1010.22
2018-01-26T04:23:15.994Z,1010.25
2018-01-26T04:24:15.931Z,1010.24
2018-01-26T04:25:15.832Z,1010.27
2018-01-26T04:26:15.768Z,1010.28
2018-01-26T04:27:15.689Z,1010.32
2018-01-26T04:28:15.679Z,1010.29
2018-01-26T04:29:15.509Z,1010.31
2018-01-26T04:30:15.433Z,1010.28
2018-01-26T04:31:15.357Z,1010.31
2018-01-26T04:32:15.320Z,1010.33
2018-01-26T04:33:15.193Z,1010.28
2018-01-26T04:34:15.115Z,1010.31
2018-01-26T04:35:15.026Z,1010.34
2018-01-26T04:36:14.993Z,1010.33
2018-01-26T04:37:14.906Z,1010.33
2018-01-26T04:38:14.826Z,1010.36
2018-01-26T04:39:14.734Z,1010.32
2018-01-26T04:40:14.636Z,1010.35
2018-01-26T04:41:14.548Z,1010.31
2018-01-26T04:42:14.480Z,1010.28
2018-01-26T04:43:14.401Z,1010.32
2018-01-26T04:44:14.359Z,1010.28
2018-01-26T04:45:14.226Z,1010.30
2018-01-26T04:46:14.181Z,1010.29
2018-01-26T04:47:14.069Z,1010.35
2018-01-26T04:48:14.019Z,1010.41
2018-01-26T04:49:13.919Z,1010.42
2018-01-26T04:50:13.838Z,1010.45
2018-01-26T04:51:13.775Z,1010.45
2018-01-26T04:52:13.675Z,1010.45
2018-01-26T04:53:13.636Z,1010.45
2018-01-26T04:54:13.530Z,1010.48
2018-01-26T04:55:13.423Z,1010.50
2018-01-26T04:56:13.357Z,1010.48
2018-01-26T04:57:13.273Z,1010.52
2018-01-26T04:58:13.213Z,1010.51
2018-01-26T04:59:13.106Z,1010.48
2018-01-26T05:00:13.037Z,1010.53
2018-01-26T05:01:12.948Z,1010.52
2018-01-26T05:02:12.880Z,1010.52
2018-01-26T05:03:12.803Z,1010.54
2018-01-26T05:04:12.733Z,1010.58
2018-01-26T05:05:12.625Z,1010.59
2018-01-26T05:06:12.584Z,1010.57
2018-01-26T05:07:12.480Z,1010.62
2018-01-26T05:08:12.399Z,1010.61
2018-01-26T05:09:12.318Z,1010.58
2018-01-26T05:10:12.233Z,1010.62
2018-01-26T05:11:12.138Z,1010.61
2018-01-26T05:12:12.083Z,1010.61
2018-01-26T05:13:11.988Z,1010.61
2018-01-26T05:14:11.932Z,1010.69
2018-01-26T05:15:11.822Z,1010.70
2018-01-26T05:16:11.831Z,1010.69
2018-01-26T05:17:11.664Z,1010.64
2018-01-26T05:18:11.613Z,1010.63
2018-01-26T05:19:11.539Z,1010.61
2018-01-26T05:20:11.434Z,1010.60
2018-01-26T05:21:11.343Z,1010.59
2018-01-26T05:22:11.281Z,1010.62
2018-01-26T05:23:11.183Z,1010.61
2018-01-26T05:24:11.239Z,1010.63
2018-01-26T05:25:11.134Z,1010.60
2018-01-26T05:26:11.041Z,1010.56
2018-01-26T05:27:10.869Z,1010.62
2018-01-26T05:28:10.855Z,1010.61
2018-01-26T05:29:10.717Z,1010.65
2018-01-26T05:30:10.696Z,1010.64
2018-01-26T05:31:10.543Z,1010.62
2018-01-26T05:32:10.574Z,1010.62
2018-01-26T05:33:10.381Z,1010.58
2018-01-26T05:34:10.703Z,1010.63
2018-01-26T05:35:10.242Z,1010.65
2018-01-26T05:37:52.173Z,1010.70
2018-01-26T05:38:52.184Z,1010.74
2018-01-26T05:39:52.007Z,1010.76
2018-01-26T05:40:51.947Z,1010.74
2018-01-26T05:41:51.845Z,1010.74
2018-01-26T05:42:51.802Z,1010.72
2018-01-26T05:43:51.731Z,1010.70
2018-01-26T05:44:51.714Z,1010.71
2018-01-26T05:45:51.556Z,1010.71
2018-01-26T05:46:51.461Z,1010.69
2018-01-26T05:49:59.168Z,1010.72
2018-01-26T05:50:59.150Z,1010.72
2018-01-26T05:51:59.005Z,1010.69
2018-01-26T05:52:59.039Z,1010.75
2018-01-26T05:54:12.129Z,1010.77
2018-01-26T05:54:58.807Z,1010.79
2018-01-26T05:55:58.701Z,1010.86
2018-01-26T05:56:58.616Z,1010.85
2018-01-26T05:57:58.536Z,1010.87
2018-01-26T05:58:58.446Z,1010.88
2018-01-26T05:59:58.470Z,1010.85
2018-01-26T06:00:58.285Z,1010.89
2018-01-26T06:01:58.633Z,1010.95
2018-01-26T06:02:58.123Z,1010.96
2018-01-26T06:03:58.055Z,1010.96
2018-01-26T06:04:57.962Z,1010.99
2018-01-26T06:05:57.890Z,1011.01
2018-01-26T06:06:57.822Z,1010.98
2018-01-26T06:07:57.768Z,1011.01
2018-01-26T06:08:57.640Z,1011.00
2018-01-26T06:09:57.575Z,1010.98
2018-01-26T06:10:57.482Z,1010.95
2018-01-26T06:11:57.418Z,1010.95
2018-01-26T06:12:57.341Z,1010.90
2018-01-26T06:13:57.253Z,1010.88
2018-01-26T06:14:57.155Z,1010.88
2018-01-26T06:15:57.102Z,1010.84
2018-01-26T06:16:57.006Z,1010.83
2018-01-26T06:17:56.982Z,1010.87
2018-01-26T06:18:56.837Z,1010.84
2018-01-26T06:19:56.769Z,1010.85
2018-01-26T06:20:56.674Z,1010.85
2018-01-26T06:21:56.609Z,1010.89
2018-01-26T06:22:56.538Z,1010.94
2018-01-26T06:23:56.463Z,1010.96
2018-01-26T06:24:56.432Z,1011.01
2018-01-26T06:25:56.296Z,1011.07
2018-01-26T06:26:56.235Z,1011.09
2018-01-26T06:27:56.163Z,1011.14
2018-01-26T06:28:56.043Z,1011.16
2018-01-26T06:29:55.980Z,1011.15
2018-01-26T06:30:55.880Z,1011.16
2018-01-26T06:31:55.811Z,1011.13
2018-01-26T06:32:55.763Z,1011.12
2018-01-26T06:33:55.738Z,1011.17
2018-01-26T06:34:55.571Z,1011.21
2018-01-26T06:35:55.493Z,1011.22
2018-01-26T06:36:55.404Z,1011.25
2018-01-26T06:37:55.327Z,1011.25
2018-01-26T06:38:55.233Z,1011.24
2018-01-26T06:39:55.191Z,1011.24
2018-01-26T06:40:55.078Z,1011.23
2018-01-26T06:41:55.016Z,1011.22
2018-01-26T06:42:54.941Z,1011.26
2018-01-26T06:45:37.197Z,1011.26
2018-01-26T06:46:37.111Z,1011.27
2018-01-26T06:47:37.021Z,1011.25
2018-01-26T06:48:36.946Z,1011.25
2018-01-26T06:49:36.877Z,1011.26
2018-01-26T06:50:36.799Z,1011.30
2018-01-26T06:51:36.701Z,1011.29
2018-01-26T06:52:36.627Z,1011.32
2018-01-26T06:53:36.532Z,1011.36
2018-01-26T06:54:36.535Z,1011.38
2018-01-26T06:55:36.378Z,1011.39
2018-01-26T06:56:36.300Z,1011.40
2018-01-26T06:57:36.223Z,1011.40
2018-01-26T06:58:36.153Z,1011.41
2018-01-26T06:59:36.060Z,1011.42
2018-01-26T07:00:36.020Z,1011.44
2018-01-26T07:01:35.894Z,1011.42
2018-01-26T07:02:35.836Z,1011.50
2018-01-26T07:03:35.733Z,1011.55
2018-01-26T07:04:35.671Z,1011.51
2018-01-26T07:05:35.583Z,1011.57
2018-01-26T07:06:35.518Z,1011.57
2018-01-26T07:07:35.432Z,1011.59
2018-01-26T07:08:35.340Z,1011.63
2018-01-26T07:09:35.247Z,1011.65
2018-01-26T07:10:35.206Z,1011.61
2018-01-26T07:11:35.099Z,1011.63
2018-01-26T07:12:35.039Z,1011.57
2018-01-26T07:13:34.935Z,1011.61
2018-01-26T07:14:34.855Z,1011.61
2018-01-26T07:15:34.788Z,1011.63
2018-01-26T07:16:34.703Z,1011.68
2018-01-26T07:17:34.610Z,1011.73
2018-01-26T07:18:34.550Z,1011.71
2018-01-26T07:19:34.457Z,1011.79
2018-01-26T07:20:34.399Z,1011.90
2018-01-26T07:21:34.358Z,1011.90
2018-01-26T07:22:34.244Z,1011.95
2018-01-26T07:23:34.179Z,1012.01
2018-01-26T07:24:34.079Z,1011.99
2018-01-26T07:25:33.973Z,1012.00
2018-01-26T07:26:33.946Z,1012.00
2018-01-26T07:27:33.808Z,1012.00
2018-01-26T07:28:33.753Z,1012.01
2018-01-26T07:29:33.658Z,1012.07
2018-01-26T07:30:33.620Z,1012.12
2018-01-26T07:31:33.488Z,1012.10
2018-01-26T07:32:33.461Z,1012.09
2018-01-26T07:33:33.322Z,1012.10
2018-01-26T07:34:33.262Z,1012.09
2018-01-26T07:35:33.167Z,1012.06
2018-01-26T07:36:33.134Z,1012.08
2018-01-26T07:37:33.012Z,1012.11
2018-01-26T07:38:32.949Z,1012.14
2018-01-26T07:39:32.860Z,1012.17
2018-01-26T07:40:32.788Z,1012.24
2018-01-26T07:41:32.721Z,1012.28
2018-01-26T07:42:32.624Z,1012.25
2018-01-26T07:43:32.561Z,1012.27
2018-01-26T07:44:32.473Z,1012.29
2018-01-26T07:45:32.373Z,1012.34
2018-01-26T07:46:32.304Z,1012.30
2018-01-26T07:47:32.236Z,1012.34
2018-01-26T07:48:32.149Z,1012.33
2018-01-26T07:49:32.048Z,1012.38
2018-01-26T07:50:31.999Z,1012.39
2018-01-26T07:51:32.328Z,1012.36
2018-01-26T07:52:31.835Z,1012.36
2018-01-26T07:53:31.735Z,1012.39
2018-01-26T07:54:31.680Z,1012.41
2018-01-26T07:55:31.563Z,1012.40
2018-01-26T07:56:31.524Z,1012.38
2018-01-26T07:57:31.431Z,1012.35
2018-01-26T07:58:31.371Z,1012.35
2018-01-26T07:59:31.266Z,1012.34
2018-01-26T08:00:31.187Z,1012.33
2018-01-26T08:01:31.090Z,1012.32
2018-01-26T08:02:31.112Z,1012.34
2018-01-26T08:03:30.948Z,1012.33
2018-01-26T08:04:30.854Z,1012.33
2018-01-26T08:05:30.778Z,1012.37
2018-01-26T08:06:30.719Z,1012.34
2018-01-26T08:07:30.615Z,1012.37
2018-01-26T08:08:30.554Z,1012.37
2018-01-26T08:09:30.972Z,1012.43
2018-01-26T08:10:30.379Z,1012.43
2018-01-26T08:11:30.306Z,1012.50
2018-01-26T08:12:30.220Z,1012.47
2018-01-26T08:13:30.141Z,1012.50
2018-01-26T08:14:30.099Z,1012.50
2018-01-26T08:15:29.962Z,1012.49
2018-01-26T08:16:29.900Z,1012.45
2018-01-26T08:17:29.805Z,1012.46
2018-01-26T08:18:29.822Z,1012.51
2018-01-26T08:19:29.681Z,1012.46
2018-01-26T08:20:29.589Z,1012.49
2018-01-26T08:21:29.491Z,1012.55
2018-01-26T08:22:29.418Z,1012.50
2018-01-26T08:23:29.335Z,1012.53
2018-01-26T08:24:29.277Z,1012.56
2018-01-26T08:25:29.227Z,1012.57
2018-01-26T08:26:29.112Z,1012.62
2018-01-26T08:27:29.031Z,1012.64
2018-01-26T08:28:28.953Z,1012.63
2018-01-26T08:29:28.863Z,1012.60
2018-01-26T08:30:28.791Z,1012.66
2018-01-26T08:31:28.696Z,1012.70
2018-01-26T08:32:28.746Z,1012.75
2018-01-26T08:33:28.542Z,1012.69
2018-01-26T08:34:28.471Z,1012.69
2018-01-26T08:35:28.403Z,1012.71
2018-01-26T08:36:28.305Z,1012.65
2018-01-26T08:37:28.202Z,1012.63
2018-01-26T08:38:28.147Z,1012.57
2018-01-26T08:39:28.067Z,1012.59
2018-01-26T08:40:27.995Z,1012.51
2018-01-26T08:41:28.768Z,1012.58
2018-01-26T08:44:10.201Z,1012.60
2018-01-26T08:45:10.140Z,1012.63
2018-01-26T08:46:10.055Z,1012.61
2018-01-26T08:47:09.984Z,1012.64
2018-01-26T08:48:09.875Z,1012.65
2018-01-26T08:49:09.806Z,1012.66
2018-01-26T08:50:09.712Z,1012.72
2018-01-26T08:51:09.665Z,1012.72
2018-01-26T08:52:09.604Z,1012.77
2018-01-26T08:53:09.500Z,1012.74
2018-01-26T08:54:09.386Z,1012.74
2018-01-26T08:55:09.333Z,1012.75
2018-01-26T08:56:09.246Z,1012.77
2018-01-26T08:57:09.169Z,1012.76
2018-01-26T08:58:09.070Z,1012.78
2018-01-26T08:59:08.998Z,1012.77
2018-01-26T09:00:08.925Z,1012.79
2018-01-26T09:01:08.867Z,1012.74
2018-01-26T09:02:08.768Z,1012.73
2018-01-26T09:03:08.694Z,1012.77
2018-01-26T09:04:08.593Z,1012.78
2018-01-26T09:05:08.531Z,1012.78
2018-01-26T09:06:08.487Z,1012.81
2018-01-26T09:07:08.382Z,1012.83
2018-01-26T09:08:08.295Z,1012.84
2018-01-26T09:09:08.219Z,1012.87
2018-01-26T09:10:08.118Z,1012.86
2018-01-26T09:11:08.045Z,1012.93
2018-01-26T09:12:07.978Z,1012.91
2018-01-26T09:13:07.912Z,1012.94
2018-01-26T09:14:07.793Z,1013.00
2018-01-26T09:15:07.753Z,1012.98
2018-01-26T09:16:07.632Z,1012.98
2018-01-26T09:17:07.565Z,1012.99
2018-01-26T09:18:07.495Z,1013.02
2018-01-26T09:19:07.415Z,1013.03
2018-01-26T09:20:07.309Z,1013.07
2018-01-26T09:21:07.244Z,1013.15
2018-01-26T09:22:07.155Z,1013.16
2018-01-26T09:23:07.105Z,1013.21
2018-01-26T09:24:07.089Z,1013.27
2018-01-26T09:26:49.218Z,1013.23
2018-01-26T09:27:49.181Z,1013.28
2018-01-26T09:28:49.043Z,1013.29
2018-01-26T09:29:48.984Z,1013.32
2018-01-26T09:30:49.789Z,1013.36
2018-01-26T09:31:48.830Z,1013.33
2018-01-26T09:32:48.750Z,1013.33
2018-01-26T09:33:48.672Z,1013.38
2018-01-26T09:34:48.567Z,1013.31
2018-01-26T09:35:48.509Z,1013.36
2018-01-26T09:36:48.399Z,1013.38
2018-01-26T09:37:48.356Z,1013.39
2018-01-26T09:38:48.292Z,1013.42
2018-01-26T09:39:48.291Z,1013.42
2018-01-26T09:40:48.081Z,1013.41
2018-01-26T09:41:48.009Z,1013.41
2018-01-26T09:42:47.998Z,1013.40
2018-01-26T09:43:47.895Z,1013.43
2018-01-26T09:44:47.767Z,1013.39
2018-01-26T09:45:47.698Z,1013.43
2018-01-26T09:46:47.615Z,1013.46
2018-01-26T09:47:47.556Z,1013.47
2018-01-26T09:48:47.525Z,1013.43
2018-01-26T09:49:47.396Z,1013.48
2018-01-26T09:50:47.294Z,1013.46
2018-01-26T09:51:47.228Z,1013.52
2018-01-26T09:52:47.131Z,1013.51
2018-01-26T09:53:48.151Z,1013.55
2018-01-26T09:54:46.988Z,1013.54
2018-01-26T09:55:46.914Z,1013.57
2018-01-26T09:56:46.834Z,1013.57
2018-01-26T09:57:46.750Z,1013.59
2018-01-26T09:58:46.710Z,1013.65
2018-01-26T09:59:46.609Z,1013.61
2018-01-26T10:00:46.496Z,1013.68
2018-01-26T10:01:46.440Z,1013.65
2018-01-26T10:02:46.379Z,1013.68
2018-01-26T10:03:46.285Z,1013.70
2018-01-26T10:04:46.219Z,1013.69
2018-01-26T10:05:46.120Z,1013.69
2018-01-26T10:06:46.024Z,1013.67
2018-01-26T10:07:45.968Z,1013.66
2018-01-26T10:08:45.873Z,1013.69
2018-01-26T10:09:45.822Z,1013.68
2018-01-26T10:10:45.737Z,1013.71
2018-01-26T10:11:45.753Z,1013.73
2018-01-26T10:12:45.550Z,1013.76
2018-01-26T10:13:45.479Z,1013.71
2018-01-26T10:14:45.408Z,1013.76
2018-01-26T10:15:46.345Z,1013.75
2018-01-26T10:16:45.237Z,1013.76
2018-01-26T10:17:45.188Z,1013.75
2018-01-26T10:18:45.088Z,1013.78
2018-01-26T10:19:45.021Z,1013.78
2018-01-26T10:20:44.982Z,1013.85
2018-01-26T10:21:44.856Z,1013.79
2018-01-26T10:22:44.772Z,1013.81
2018-01-26T10:23:44.700Z,1013.79
2018-01-26T10:24:44.606Z,1013.80
2018-01-26T10:25:44.562Z,1013.81
2018-01-26T10:26:44.458Z,1013.81
2018-01-26T10:27:44.427Z,1013.86
2018-01-26T10:28:44.281Z,1013.86
2018-01-26T10:29:44.259Z,1013.87
2018-01-26T10:30:44.152Z,1013.88
2018-01-26T10:31:44.090Z,1013.90
2018-01-26T10:32:43.980Z,1013.86
2018-01-26T10:33:43.905Z,1013.87
2018-01-26T10:34:43.823Z,1013.91
2018-01-26T10:35:43.745Z,1013.90
2018-01-26T10:36:43.716Z,1013.90
2018-01-26T10:37:43.603Z,1013.90
2018-01-26T10:38:43.502Z,1013.96
2018-01-26T10:39:43.432Z,1013.96
2018-01-26T10:40:43.344Z,1013.95
2018-01-26T10:41:43.286Z,1013.96
2018-01-26T10:42:43.196Z,1014.00
2018-01-26T10:43:43.126Z,1014.00
2018-01-26T10:44:43.021Z,1014.03
2018-01-26T10:45:42.952Z,1014.05
2018-01-26T10:46:42.896Z,1014.10
2018-01-26T10:47:42.812Z,1014.06
2018-01-26T10:48:42.790Z,1014.09
2018-01-26T10:49:42.673Z,1014.06
2018-01-26T10:50:42.574Z,1014.07
2018-01-26T10:51:42.495Z,1014.05
2018-01-26T10:52:42.427Z,1014.08
2018-01-26T10:53:42.324Z,1014.08
2018-01-26T10:54:42.245Z,1014.10
2018-01-26T10:55:42.168Z,1014.10
2018-01-26T10:56:42.080Z,1014.11
2018-01-26T10:57:42.023Z,1014.08
2018-01-26T10:58:41.912Z,1014.13
2018-01-26T10:59:41.868Z,1014.13
2018-01-26T11:00:41.763Z,1014.18
2018-01-26T11:01:41.699Z,1014.19
2018-01-26T11:02:41.622Z,1014.23
2018-01-26T11:03:41.560Z,1014.28
2018-01-26T11:04:41.458Z,1014.29
2018-01-26T11:05:41.379Z,1014.31
2018-01-26T11:06:41.292Z,1014.30
2018-01-26T11:07:41.227Z,1014.28
2018-01-26T11:08:41.185Z,1014.29
2018-01-26T11:09:41.071Z,1014.34
2018-01-26T11:10:41.001Z,1014.31
2018-01-26T11:11:40.905Z,1014.32
2018-01-26T11:12:40.815Z,1014.33
2018-01-26T11:13:40.760Z,1014.38
2018-01-26T11:14:40.652Z,1014.37
2018-01-26T11:15:40.610Z,1014.36
2018-01-26T11:16:40.497Z,1014.36
2018-01-26T11:17:40.433Z,1014.35
2018-01-26T11:18:40.347Z,1014.35
2018-01-26T11:19:40.290Z,1014.35
2018-01-26T11:20:40.188Z,1014.37
2018-01-26T11:21:40.158Z,1014.40
2018-01-26T11:22:40.042Z,1014.39
2018-01-26T11:23:39.954Z,1014.38
2018-01-26T11:24:39.897Z,1014.36
2018-01-26T11:25:39.823Z,1014.38
2018-01-26T11:26:39.718Z,1014.39
2018-01-26T11:27:39.639Z,1014.40
2018-01-26T11:28:39.549Z,1014.39
2018-01-26T11:29:39.476Z,1014.41
2018-01-26T11:30:39.404Z,1014.42
2018-01-26T11:31:39.332Z,1014.43
2018-01-26T11:32:39.263Z,1014.49
2018-01-26T11:33:39.172Z,1014.49
2018-01-26T11:34:39.192Z,1014.53
2018-01-26T11:35:39.040Z,1014.52
2018-01-26T11:36:38.938Z,1014.52
2018-01-26T11:37:38.873Z,1014.56
2018-01-26T11:38:38.778Z,1014.56
2018-01-26T11:39:38.693Z,1014.58
2018-01-26T11:40:38.635Z,1014.57
2018-01-26T11:41:38.541Z,1014.62
2018-01-26T11:42:38.449Z,1014.63
2018-01-26T11:43:38.387Z,1014.63
2018-01-26T11:44:38.308Z,1014.70
2018-01-26T11:47:20.245Z,1014.70
2018-01-26T11:48:20.167Z,1014.68
2018-01-26T11:49:20.079Z,1014.71
2018-01-26T11:50:20.019Z,1014.69
2018-01-26T11:51:19.935Z,1014.72
2018-01-26T11:52:19.843Z,1014.68
2018-01-26T11:53:19.751Z,1014.78
2018-01-26T11:54:19.698Z,1014.76
2018-01-26T11:55:19.613Z,1014.76
2018-01-26T11:56:19.531Z,1014.71
2018-01-26T11:57:19.436Z,1014.70
2018-01-26T11:58:19.397Z,1014.71
2018-01-26T11:59:19.301Z,1014.70
2018-01-26T12:00:19.230Z,1014.66
2018-01-26T12:01:19.138Z,1014.70
2018-01-26T12:02:19.090Z,1014.66
2018-01-26T12:03:18.979Z,1014.65
2018-01-26T12:04:18.894Z,1014.63
2018-01-26T12:05:18.843Z,1014.63
2018-01-26T12:06:18.749Z,1014.65
2018-01-26T12:07:18.651Z,1014.65
2018-01-26T12:08:18.654Z,1014.70
2018-01-26T12:09:18.522Z,1014.67
2018-01-26T12:10:18.454Z,1014.67
2018-01-26T12:11:18.340Z,1014.65
2018-01-26T12:12:18.299Z,1014.61
2018-01-26T12:13:18.184Z,1014.62
2018-01-26T12:14:18.130Z,1014.65
2018-01-26T12:15:18.047Z,1014.63
2018-01-26T12:16:17.956Z,1014.63
2018-01-26T12:17:17.972Z,1014.58
2018-01-26T12:18:17.806Z,1014.64
2018-01-26T12:19:17.711Z,1014.64
2018-01-26T12:20:17.673Z,1014.67
2018-01-26T12:21:17.553Z,1014.67
2018-01-26T12:22:17.523Z,1014.65
2018-01-26T12:23:17.406Z,1014.68
2018-01-26T12:24:17.328Z,1014.70
2018-01-26T12:25:17.239Z,1014.76